EW4389 Weather Reports


Display with metric or nautical units.
time (UTC)temp
F
wind
direction
speed
MPH
gust
MPH
rain 1hr
in
rain 24hr
in
rain mn
in
humidity
%
barometer
mb
20200401061627 33 46 0.0 3.0 0.00 0.12 0.00 70 1009.7
20200401060217 34 46 0.0 4.0 0.00 0.12 0.00 69 1009.8
20200401054704 34 44 0.0 3.0 0.00 0.14 0.00 67 1009.9
20200401053139 35 44 0.0 3.0 0.00 0.14 0.00 66 1009.9
20200401051623 35 42 0.0 4.0 0.00 0.14 0.00 63 1009.9
20200401044557 36 50 1.0 5.0 0.00 0.16 0.00 56 1010.2
20200401043113 36 45 1.0 5.0 0.00 0.16 0.00 54 1010.4
20200401041619 37 48 2.0 6.0 0.00 0.16 0.00 52 1010.7
20200401040113 37 55 1.0 6.0 0.00 0.16 0.00 51 1010.8
20200401034542 37 41 0.0 7.0 0.00 0.20 0.16 50 1010.9
20200401033127 37 32 2.0 9.0 0.00 0.20 0.16 50 1010.9
20200401031611 37 56 0.0 6.0 0.00 0.20 0.16 49 1011.0
20200401030046 37 18 3.0 10.0 0.00 0.20 0.16 49 1011.3
20200401024617 37 40 0.0 8.0 0.00 0.22 0.16 49 1011.5
20200401023106 38 40 2.0 7.0 0.00 0.22 0.16 49 1011.5
20200401021537 38 71 1.0 7.0 0.00 0.22 0.16 50 1011.6
20200401020105 38 65 1.0 6.0 0.00 0.22 0.16 50 1011.6
20200401014530 38 67 3.0 8.0 0.00 0.22 0.16 51 1011.7
20200401013029 38 62 2.0 7.0 0.00 0.22 0.16 51 1011.8
20200401011554 38 62 2.0 8.0 0.00 0.22 0.16 52 1011.9
20200401010040 38 59 1.0 9.0 0.00 0.22 0.16 52 1011.9
20200401004531 38 36 5.0 11.0 0.00 0.24 0.16 53 1012.0
20200401003031 38 50 2.0 9.0 0.00 0.24 0.16 54 1011.9
20200401001536 39 31 3.0 10.0 0.00 0.24 0.16 56 1012.0
20200401000024 39 61 3.0 11.0 0.00 0.24 0.16 57 1011.9
20200331234532 40 61 2.0 8.0 0.00 0.26 0.16 57 1011.8
20200331233024 40 65 4.0 10.0 0.00 0.26 0.16 58 1011.7
20200331231523 41 42 2.0 9.0 0.00 0.26 0.16 58 1011.6
20200331230059 41 50 3.0 8.0 0.00 0.26 0.16 59 1011.6
20200331224530 41 45 1.0 6.0 0.00 0.27 0.16 60 1011.4
20200331223100 41 55 2.0 9.0 0.00 0.27 0.16 60 1011.3
20200331221528 42 65 2.0 9.0 0.00 0.27 0.16 61 1011.2
20200331220049 42 60 3.0 10.0 0.00 0.27 0.16 63 1011.1
20200331214521 42 59 2.0 8.0 0.00 0.27 0.16 67 1011.0
20200331213050 43 40 3.0 9.0 0.00 0.27 0.16 70 1010.9
20200331211540 43 71 3.0 11.0 0.00 0.27 0.16 70 1010.9
20200331210022 43 45 3.0 6.0 0.00 0.27 0.16 69 1010.9
20200331204555 43 88 2.0 7.0 0.00 0.27 0.16 70 1011.0
20200331203029 43 30 3.0 9.0 0.00 0.27 0.16 66 1011.0
20200331201555 42 91 3.0 8.0 0.00 0.27 0.16 67 1011.1
20200331200012 42 82 3.0 8.0 0.00 0.27 0.16 66 1011.2
20200331194521 43 58 2.0 6.0 0.00 0.27 0.16 62 1011.3
20200331193034 42 42 3.0 6.0 0.00 0.27 0.16 63 1011.7
20200331191510 42 53 2.0 6.0 0.00 0.27 0.16 67 1011.8
20200331190007 42 88 3.0 8.0 0.00 0.28 0.16 68 1012.0
20200331184516 42 83 4.0 9.0 0.00 0.28 0.16 71 1012.3
20200331183017 42 69 3.0 8.0 0.00 0.28 0.16 72 1012.5
20200331181504 42 91 2.0 9.0 0.00 0.28 0.16 71 1012.6
20200331180007 43 104 4.0 9.0 0.00 0.28 0.16 72 1012.6
20200331174502 43 36 4.0 9.0 0.00 0.28 0.16 72 1012.7
20200331173156 43 71 1.0 4.0 0.00 0.28 0.16 70 1012.7
20200331171615 44 79 2.0 7.0 0.00 0.28 0.16 60 1012.7
20200331170127 43 55 2.0 6.0 0.00 0.28 0.16 52 1012.6
20200331164648 42 62 3.0 8.0 0.00 0.28 0.16 49 1012.8
20200331163130 42 33 2.0 7.0 0.00 0.28 0.16 44 1012.8
20200331161639 42 44 2.0 5.0 0.00 0.28 0.16 43 1012.9
20200331160130 41 73 2.0 4.0 0.00 0.28 0.16 43 1013.0
20200331154616 41 55 1.0 4.0 0.00 0.28 0.16 42 1013.1
20200331153054 41 54 2.0 6.0 0.00 0.28 0.16 41 1013.2
20200331151757 41 69 1.0 4.0 0.00 0.28 0.16 41 1013.2
20200331150152 40 74 1.0 6.0 0.00 0.28 0.16 41 1013.1
20200331144614 40 71 1.0 3.0 0.00 0.28 0.16 41 1013.3
20200331143127 40 71 0.0 3.0 0.00 0.28 0.16 41 1013.5
20200331141627 40 223 0.0 3.0 0.00 0.28 0.16 41 1013.5
20200331140136 39 239 1.0 3.0 0.00 0.28 0.16 41 1013.6
20200331134634 39 243 0.0 2.0 0.01 0.28 0.16 41 1013.6
20200331133043 38 243 0.0 2.0 0.01 0.28 0.16 41 1013.5
20200331131612 38 243 0.0 3.0 0.01 0.28 0.16 41 1013.7
20200331130046 37 243 0.0 1.0 0.01 0.28 0.16 42 1013.6
20200331124608 37 243 2.0 3.0 0.00 0.28 0.15 42 1013.6
20200331123112 37 243 1.0 3.0 0.00 0.28 0.15 42 1013.7
20200331121540 37 243 1.0 2.0 0.00 0.28 0.15 42 1013.6
20200331120046 37 243 1.0 3.0 0.00 0.28 0.15 42 1013.5
20200331114537 37 243 0.0 3.0 0.00 0.28 0.15 42 1013.5
20200331113031 37 243 2.0 4.0 0.00 0.28 0.15 42 1013.5
20200331111541 37 242 1.0 3.0 0.01 0.28 0.15 43 1013.4
20200331110036 37 242 3.0 6.0 0.02 0.28 0.15 43 1013.3
20200331104527 37 242 3.0 6.0 0.03 0.31 0.15 42 1013.1
20200331103113 37 240 2.0 4.0 0.03 0.31 0.15 42 1012.9
20200331101530 37 240 1.0 3.0 0.02 0.30 0.14 43 1012.8
20200331100022 37 240 1.0 3.0 0.01 0.28 0.13 43 1012.7
20200331094526 37 240 2.0 6.0 0.00 0.28 0.12 43 1012.5
20200331093047 37 241 2.0 9.0 0.00 0.28 0.12 43 1012.4
20200331090035 37 246 3.0 7.0 0.02 0.28 0.12 43 1012.2
20200331084522 37 264 3.0 7.0 0.03 0.28 0.12 43 1012.1
20200331083032 37 266 6.0 9.0 0.04 0.28 0.12 43 1012.1
20200331081515 37 269 2.0 4.0 0.03 0.28 0.11 43 1012.1
20200331080016 37 275 3.0 8.0 0.03 0.27 0.10 43 1012.2
20200331074511 37 271 5.0 9.0 0.03 0.26 0.09 43 1012.3
20200331073036 37 236 4.0 10.0 0.03 0.25 0.08 44 1012.3
20200331071505 37 283 3.0 5.0 0.04 0.25 0.08 44 1012.3
20200331070005 38 286 4.0 8.0 0.03 0.24 0.07 44 1012.3
20200331064505 38 259 5.0 8.0 0.03 0.23 0.06 44 1012.1
20200331063147 38 247 3.0 7.0 0.02 0.22 0.05 44 1012.1
20200331061715 38 260 1.0 8.0 0.02 0.21 0.04 44 1012.1